Terminal Aerodrome Forecast
Issued by NWS

Home | Current Version | Previous Version | Text Only | Print | Product List | Glossary On
Versions: 1 2 3 4 5 6 7 8 9 10 11 12 13 14 15 16 17 18
000
FTUS46 KSEW 041339 AAA
TAFHQM
TAF AMD
KHQM 041339Z 0414/0512 VRB04KT 5SM BR OVC004
     FM041800 19005KT P6SM BKN011
     FM042000 24012KT P6SM SKC
     FM050300 26007KT P6SM SKC=

USA.gov is the U.S. government's official web portal to all federal, state and local government web resources and services.